createdAt,value
2019-04-29T00:02:44.484Z,6.67
2019-04-29T00:07:50.165Z,5.87
2019-04-29T00:12:55.934Z,6.10
2019-04-29T00:18:03.104Z,6.10
2019-04-29T00:23:08.583Z,6.10
2019-04-29T00:28:14.463Z,6.20
2019-04-29T00:33:19.963Z,5.87
2019-04-29T00:38:43.543Z,6.28
2019-04-29T00:43:50.563Z,6.05
2019-04-29T00:48:56.003Z,6.80
2019-04-29T00:54:03.145Z,6.25
2019-04-29T00:59:08.724Z,6.22
2019-04-29T01:04:14.403Z,6.50
2019-04-29T01:09:20.694Z,6.47
2019-04-29T01:14:26.125Z,6.08
2019-04-29T01:19:31.603Z,6.90
2019-04-29T01:24:37.103Z,6.33
2019-04-29T01:29:42.723Z,5.85
2019-04-29T01:34:55.549Z,6.40
2019-04-29T01:40:02.683Z,6.08
2019-04-29T01:45:09.369Z,6.95
2019-04-29T01:50:14.844Z,6.03
2019-04-29T01:55:20.324Z,6.70
2019-04-29T02:00:25.806Z,7.00
2019-04-29T02:05:31.249Z,6.62
2019-04-29T02:10:37.003Z,7.15
2019-04-29T02:15:42.484Z,6.30
2019-04-29T02:20:48.013Z,6.80
2019-04-29T02:25:53.484Z,6.47
2019-04-29T02:31:00.687Z,6.55
2019-04-29T02:36:06.227Z,5.87
2019-04-29T02:41:13.546Z,5.87
2019-04-29T02:46:19.144Z,6.42
2019-04-29T02:51:44.326Z,6.75
2019-04-29T02:56:51.390Z,6.08
2019-04-29T03:02:16.245Z,6.25
2019-04-29T03:07:22.530Z,6.58
2019-04-29T03:12:28.111Z,6.78
2019-04-29T03:17:33.644Z,6.95
2019-04-29T03:22:40.923Z,7.83
2019-04-29T03:27:46.436Z,7.72
2019-04-29T03:32:52.242Z,13.98
2019-04-29T03:37:59.005Z,9.50
2019-04-29T03:43:04.491Z,15.08
2019-04-29T03:48:09.985Z,18.40
2019-04-29T03:53:15.746Z,29.50
2019-04-29T03:58:21.567Z,13.80
2019-04-29T04:03:28.610Z,23.75
2019-04-29T04:08:35.687Z,20.05
2019-04-29T04:13:41.253Z,22.48
2019-04-29T04:18:47.412Z,16.37
2019-04-29T04:23:52.995Z,11.60
2019-04-29T04:28:58.605Z,12.58
2019-04-29T04:34:05.163Z,10.18
2019-04-29T04:39:10.627Z,9.40
2019-04-29T04:44:16.146Z,9.33
2019-04-29T04:49:21.683Z,9.33
2019-04-29T04:54:27.134Z,9.13
2019-04-29T04:59:32.702Z,10.35
2019-04-29T05:04:38.183Z,9.20
2019-04-29T05:09:43.784Z,9.98
2019-04-29T05:14:49.329Z,9.20
2019-04-29T05:19:54.829Z,8.53
2019-04-29T05:25:00.309Z,7.50
2019-04-29T05:30:06.779Z,6.62
2019-04-29T05:35:20.756Z,7.45
2019-04-29T05:40:46.990Z,7.03
2019-04-29T05:46:10.287Z,7.30
2019-04-29T05:51:17.403Z,7.65
2019-04-29T05:56:22.926Z,9.05
2019-04-29T06:01:29.972Z,9.25
2019-04-29T06:06:35.644Z,7.22
2019-04-29T06:11:41.205Z,8.23
2019-04-29T06:16:46.785Z,7.97
2019-04-29T06:21:52.515Z,8.80
2019-04-29T06:26:59.116Z,8.30
2019-04-29T06:32:04.603Z,9.65
2019-04-29T06:37:10.146Z,6.08
2019-04-29T06:42:19.603Z,5.40
2019-04-29T06:47:22.785Z,6.55
2019-04-29T06:52:28.298Z,7.03
2019-04-29T06:57:33.781Z,5.90
2019-04-29T07:02:39.313Z,6.92
2019-04-29T07:07:44.764Z,7.53
2019-04-29T07:12:50.264Z,6.28
2019-04-29T07:17:55.865Z,5.60
2019-04-29T07:23:02.465Z,4.67
2019-04-29T07:28:08.124Z,4.10
2019-04-29T07:33:13.637Z,4.58
2019-04-29T07:38:19.145Z,4.83
2019-04-29T07:43:24.924Z,5.00
2019-04-29T07:48:30.436Z,4.40
2019-04-29T07:53:44.799Z,4.83
2019-04-29T07:58:43.105Z,4.47
2019-04-29T08:03:48.665Z,4.53
2019-04-29T08:08:55.705Z,5.78
2019-04-29T08:14:02.083Z,5.12
2019-04-29T08:19:07.545Z,5.15
2019-04-29T08:24:15.933Z,5.00
2019-04-29T08:29:20.250Z,5.00
2019-04-29T08:34:25.931Z,4.70
2019-04-29T08:39:31.407Z,5.35
2019-04-29T08:44:44.475Z,4.75
2019-04-29T08:49:50.332Z,4.80
2019-04-29T08:54:58.962Z,4.70
2019-04-29T09:00:07.573Z,4.03
2019-04-29T09:05:13.615Z,4.10
2019-04-29T09:10:19.373Z,4.05
2019-04-29T09:15:24.821Z,3.87
2019-04-29T09:20:30.290Z,3.92
2019-04-29T09:25:46.450Z,3.37
2019-04-29T09:30:51.893Z,3.42
2019-04-29T09:35:57.433Z,3.12
2019-04-29T09:41:08.460Z,2.98
2019-04-29T09:46:18.414Z,3.20
2019-04-29T09:51:27.973Z,2.70
2019-04-29T09:56:31.125Z,2.80
2019-04-29T10:01:44.184Z,2.98
2019-04-29T10:06:51.234Z,3.00
2019-04-29T10:11:56.824Z,3.12
2019-04-29T10:17:06.760Z,2.80
2019-04-29T10:22:13.374Z,2.75
2019-04-29T10:27:18.834Z,2.90
2019-04-29T10:32:25.504Z,2.95
2019-04-29T10:37:32.674Z,3.00
2019-04-29T10:42:43.097Z,3.00
2019-04-29T10:47:56.170Z,3.70
2019-04-29T10:53:02.804Z,3.00
2019-04-29T10:58:08.698Z,3.17
2019-04-29T11:03:14.587Z,3.33
2019-04-29T11:08:21.943Z,3.00
2019-04-29T11:13:27.386Z,2.87
2019-04-29T11:18:33.177Z,2.80
2019-04-29T11:23:42.913Z,2.80
2019-04-29T11:28:51.266Z,2.85
2019-04-29T11:33:58.402Z,4.60
2019-04-29T11:39:09.007Z,3.00
2019-04-29T11:44:14.063Z,3.10
2019-04-29T11:49:21.135Z,2.98
2019-04-29T11:54:26.764Z,2.80
2019-04-29T11:59:33.828Z,2.90
2019-04-29T12:04:52.993Z,2.90
2019-04-29T12:10:02.306Z,3.00
2019-04-29T12:15:13.612Z,4.40
2019-04-29T12:20:26.543Z,3.15
2019-04-29T12:25:32.190Z,3.50
2019-04-29T12:30:42.203Z,3.10
2019-04-29T12:36:02.630Z,3.22
2019-04-29T12:41:30.176Z,3.27
2019-04-29T12:46:43.272Z,3.27
2019-04-29T12:51:48.868Z,3.47
2019-04-29T12:56:54.343Z,3.52
2019-04-29T13:02:07.609Z,3.17
2019-04-29T13:07:20.715Z,3.35
2019-04-29T13:12:30.252Z,3.37
2019-04-29T13:18:02.178Z,3.15
2019-04-29T13:23:00.553Z,3.83
2019-04-29T13:28:04.401Z,3.33
2019-04-29T13:33:16.561Z,3.50
2019-04-29T13:38:17.567Z,3.65
2019-04-29T13:43:25.972Z,3.60
2019-04-29T13:48:55.806Z,3.60
2019-04-29T13:53:59.097Z,34.33
2019-04-29T13:59:09.701Z,3.95
2019-04-29T14:04:13.258Z,3.50
2019-04-29T14:09:18.724Z,3.40
2019-04-29T14:14:24.677Z,3.17
2019-04-29T14:19:40.879Z,4.00
2019-04-29T14:24:38.726Z,3.52
2019-04-29T14:29:44.273Z,3.55
2019-04-29T14:34:51.354Z,4.22
2019-04-29T14:39:57.003Z,3.67
2019-04-29T14:45:22.024Z,3.90
2019-04-29T14:50:27.683Z,3.65
2019-04-29T14:55:33.170Z,3.62
2019-04-29T15:00:52.770Z,3.83
2019-04-29T15:05:58.393Z,3.70
2019-04-29T15:11:08.323Z,4.40
2019-04-29T15:16:14.148Z,4.25
2019-04-29T15:21:32.664Z,4.37
2019-04-29T15:26:34.889Z,3.98
2019-04-29T15:31:42.462Z,4.08
2019-04-29T15:36:47.625Z,4.45
2019-04-29T15:41:54.672Z,4.00
2019-04-29T15:47:00.545Z,4.25
2019-04-29T15:52:06.204Z,4.15
2019-04-29T15:57:15.490Z,4.00
2019-04-29T16:02:19.369Z,4.10
2019-04-29T16:07:35.525Z,4.28
2019-04-29T16:12:51.006Z,4.30
2019-04-29T16:17:54.956Z,4.17
2019-04-29T16:23:02.060Z,4.65
2019-04-29T16:28:08.254Z,4.15
2019-04-29T16:33:15.578Z,4.10
2019-04-29T16:38:21.227Z,4.35
2019-04-29T16:43:37.285Z,4.70
2019-04-29T16:48:42.964Z,4.30
2019-04-29T16:53:49.406Z,4.53
2019-04-29T16:58:55.297Z,5.47
2019-04-29T17:04:05.144Z,4.95
2019-04-29T17:09:13.666Z,5.80
2019-04-29T17:14:19.824Z,8.23
2019-04-29T17:19:25.327Z,6.83
2019-04-29T17:24:30.844Z,6.65
2019-04-29T17:29:49.568Z,26.15
2019-04-29T17:34:59.410Z,7.17
2019-04-29T17:40:02.373Z,6.95
2019-04-29T17:45:12.384Z,9.85
2019-04-29T17:50:29.569Z,13.65
2019-04-29T17:55:40.242Z,19.32
2019-04-29T18:00:56.150Z,17.30
2019-04-29T18:06:17.202Z,15.63
2019-04-29T18:11:20.568Z,10.90
2019-04-29T18:16:28.929Z,13.65
2019-04-29T18:21:52.332Z,14.95
2019-04-29T18:27:02.730Z,16.15
2019-04-29T18:32:08.363Z,15.40
2019-04-29T18:37:16.483Z,14.28
2019-04-29T18:42:21.129Z,9.63
2019-04-29T18:47:27.596Z,10.75
2019-04-29T18:52:35.136Z,12.07
2019-04-29T18:57:41.749Z,12.70
2019-04-29T19:02:52.475Z,11.33
2019-04-29T19:08:01.455Z,10.90
2019-04-29T19:13:07.074Z,13.70
2019-04-29T19:18:12.451Z,9.30
2019-04-29T19:23:22.400Z,12.33
2019-04-29T19:28:30.248Z,10.40
2019-04-29T19:33:35.108Z,9.78
2019-04-29T19:38:38.120Z,9.90
2019-04-29T19:43:43.773Z,10.75
2019-04-29T19:48:49.330Z,10.38
2019-04-29T19:53:55.295Z,9.88
2019-04-29T19:59:10.388Z,11.22
2019-04-29T20:04:17.616Z,10.20
2019-04-29T20:09:23.042Z,9.80
2019-04-29T20:14:33.428Z,10.03
2019-04-29T20:19:37.897Z,11.80
2019-04-29T20:24:49.669Z,11.00
2019-04-29T20:29:51.063Z,9.58
2019-04-29T20:35:05.268Z,9.83
2019-04-29T20:40:06.652Z,9.28
2019-04-29T20:45:12.780Z,11.73
2019-04-29T20:50:18.669Z,9.05
2019-04-29T20:55:24.415Z,9.83
2019-04-29T21:00:31.569Z,9.63
2019-04-29T21:05:47.444Z,9.30
2019-04-29T21:10:46.734Z,9.70
2019-04-29T21:15:56.043Z,9.83
2019-04-29T21:21:04.540Z,9.88
2019-04-29T21:26:08.902Z,9.90
2019-04-29T21:31:18.544Z,9.30
2019-04-29T21:36:26.503Z,10.40
2019-04-29T21:41:35.891Z,10.08
2019-04-29T21:46:41.487Z,10.38
2019-04-29T21:51:49.801Z,10.70
2019-04-29T21:56:55.626Z,9.35
2019-04-29T22:02:01.493Z,10.38
2019-04-29T22:07:08.646Z,10.43
2019-04-29T22:12:20.168Z,9.90
2019-04-29T22:17:21.423Z,10.10
2019-04-29T22:22:30.659Z,10.58
2019-04-29T22:27:39.179Z,9.93
2019-04-29T22:32:41.896Z,9.75
2019-04-29T22:37:47.534Z,9.48
2019-04-29T22:43:08.384Z,9.98
2019-04-29T22:48:16.861Z,10.85
2019-04-29T22:53:17.984Z,10.53
2019-04-29T22:58:24.909Z,10.98
2019-04-29T23:03:32.717Z,11.50
2019-04-29T23:08:38.668Z,9.73
2019-04-29T23:13:46.161Z,10.95
2019-04-29T23:18:51.464Z,10.65
2019-04-29T23:24:01.744Z,10.13
2019-04-29T23:29:07.433Z,10.60
2019-04-29T23:34:12.944Z,10.85
2019-04-29T23:39:18.465Z,11.40
2019-04-29T23:44:23.963Z,12.05
2019-04-29T23:49:29.403Z,12.03
2019-04-29T23:54:44.266Z,11.95
